createdAt,value
2023-03-15T00:13:47.613Z,5.80
2023-03-15T00:17:35.662Z,4.60
2023-03-15T00:21:23.186Z,7.60
2023-03-15T00:25:11.006Z,5.70
2023-03-15T00:28:58.458Z,6.20
2023-03-15T00:48:14.427Z,8.70
2023-03-15T00:52:03.499Z,5.30
2023-03-15T00:55:52.960Z,6.50
2023-03-15T00:59:31.594Z,7.30
2023-03-15T01:03:20.938Z,7.20
2023-03-15T01:07:00.291Z,7.40
2023-03-15T01:10:49.924Z,9.90
2023-03-15T01:21:50.055Z,8.40
2023-03-15T01:40:26.795Z,11.20
2023-03-15T01:44:18.647Z,8.70
2023-03-15T01:48:07.143Z,9.50
2023-03-15T01:51:59.056Z,7.80
2023-03-15T01:55:49.020Z,8.50
2023-03-15T02:25:24.504Z,11.20
2023-03-15T02:29:13.669Z,13.40
2023-03-15T02:33:03.876Z,10.20
2023-03-15T02:45:12.678Z,14.80
2023-03-15T02:49:01.926Z,11.90
2023-03-15T02:52:50.886Z,9.10
2023-03-15T02:56:33.610Z,9.10
2023-03-15T03:00:22.645Z,9.80
2023-03-15T03:04:11.237Z,14.50
2023-03-15T03:07:50.442Z,13.50
2023-03-15T03:11:39.868Z,11.30
2023-03-15T03:15:21.988Z,8.20
2023-03-15T03:19:11.605Z,16.10
2023-03-15T03:23:03.419Z,11.30
2023-03-15T03:26:56.435Z,10.90
2023-03-15T03:30:47.489Z,13.10
2023-03-15T03:34:35.540Z,10.90
2023-03-15T03:38:16.100Z,14.90
2023-03-15T03:42:07.141Z,13.80
2023-03-15T03:45:55.153Z,13.30
2023-03-15T04:01:03.280Z,16.60
2023-03-15T04:04:52.565Z,10.80
2023-03-15T04:08:41.617Z,19.20
2023-03-15T04:12:31.105Z,14.80
2023-03-15T04:16:21.352Z,19.10
2023-03-15T04:20:36.367Z,13.00
2023-03-15T04:40:00.740Z,11.30
2023-03-15T04:43:46.888Z,17.20
2023-03-15T04:47:51.185Z,17.50
2023-03-15T04:51:40.724Z,16.50
2023-03-15T05:10:20.997Z,21.00
2023-03-15T05:13:20.865Z,18.00
2023-03-15T05:17:03.435Z,15.90
2023-03-15T05:20:54.144Z,15.80
2023-03-15T05:24:18.275Z,17.50
2023-03-15T05:28:06.152Z,17.00
2023-03-15T05:50:22.814Z,19.50
2023-03-15T05:53:49.381Z,19.30
2023-03-15T05:57:46.449Z,16.40
2023-03-15T06:01:25.779Z,18.10
2023-03-15T06:05:20.012Z,13.70
2023-03-15T06:08:09.531Z,17.50
2023-03-15T06:11:20.334Z,14.90
2023-03-15T06:14:50.738Z,17.10
2023-03-15T06:18:32.710Z,19.50
2023-03-15T06:22:08.992Z,19.40
2023-03-15T06:25:46.281Z,17.00
2023-03-15T06:29:33.759Z,23.40
2023-03-15T06:32:46.874Z,17.00
2023-03-15T06:36:14.682Z,16.30
2023-03-15T06:39:33.955Z,16.80
2023-03-15T06:42:53.868Z,12.00
2023-03-15T06:46:24.775Z,15.00
2023-03-15T06:49:17.776Z,16.10
2023-03-15T06:52:12.595Z,15.00
2023-03-15T06:55:19.581Z,15.30
2023-03-15T06:59:07.737Z,15.10
2023-03-15T07:02:48.520Z,18.10
2023-03-15T07:09:57.909Z,10.60
2023-03-15T07:13:25.780Z,19.20
2023-03-15T07:16:33.056Z,18.80
2023-03-15T07:19:28.950Z,26.80
2023-03-15T07:22:02.358Z,17.80
2023-03-15T07:25:12.449Z,25.10
2023-03-15T07:28:56.423Z,23.10
2023-03-15T07:32:24.587Z,15.90
2023-03-15T07:35:00.046Z,17.40
2023-03-15T07:38:13.481Z,13.10
2023-03-15T07:41:32.177Z,16.10
2023-03-15T07:44:49.077Z,18.10
2023-03-15T07:47:56.704Z,16.60
2023-03-15T07:51:03.358Z,18.90
2023-03-15T07:54:00.044Z,38.90
2023-03-15T07:57:28.952Z,52.90
2023-03-15T08:01:16.809Z,28.70
2023-03-15T08:04:57.823Z,14.30
2023-03-15T08:08:38.026Z,12.00
2023-03-15T08:12:21.728Z,11.20
2023-03-15T08:16:02.499Z,15.00
2023-03-15T08:19:50.577Z,13.40
2023-03-15T08:23:20.724Z,18.60
2023-03-15T08:27:08.638Z,16.50
2023-03-15T08:30:56.252Z,21.80
2023-03-15T08:34:42.807Z,18.50
2023-03-15T08:38:13.505Z,13.90
2023-03-15T08:41:45.084Z,13.30
2023-03-15T08:45:37.420Z,14.80
2023-03-15T08:49:20.926Z,18.20
2023-03-15T08:53:03.004Z,13.70
2023-03-15T08:56:50.888Z,18.20
2023-03-15T09:00:41.107Z,14.60
2023-03-15T09:03:55.079Z,11.80
2023-03-15T09:07:42.767Z,15.90
2023-03-15T09:11:30.658Z,12.50
2023-03-15T09:15:00.811Z,12.10
2023-03-15T09:22:23.910Z,13.20
2023-03-15T09:26:13.206Z,19.10
2023-03-15T09:29:42.125Z,15.60
2023-03-15T09:33:49.439Z,10.50
2023-03-15T09:37:38.689Z,9.90
2023-03-15T09:44:36.393Z,12.70
2023-03-15T09:48:27.937Z,15.40
2023-03-15T09:52:08.835Z,13.80
2023-03-15T09:56:08.859Z,9.70
2023-03-15T10:00:04.465Z,9.10
2023-03-15T10:19:26.800Z,82.60
2023-03-15T10:23:13.418Z,37.10
2023-03-15T10:30:37.401Z,16.30
2023-03-15T10:34:14.785Z,8.50
2023-03-15T10:37:35.819Z,13.80
2023-03-15T10:41:40.162Z,11.00
2023-03-15T10:45:29.145Z,10.80
2023-03-15T10:49:19.139Z,11.60
2023-03-15T10:53:14.144Z,9.30
2023-03-15T11:08:41.517Z,10.60
2023-03-15T11:12:39.662Z,7.10
2023-03-15T11:16:01.873Z,6.80
2023-03-15T11:19:17.966Z,14.30
2023-03-15T11:23:07.527Z,7.30
2023-03-15T11:26:53.658Z,7.30
2023-03-15T11:30:42.988Z,11.90
2023-03-15T11:34:31.378Z,11.50
2023-03-15T11:38:22.543Z,10.70
2023-03-15T11:53:15.441Z,10.40
2023-03-15T11:57:25.888Z,7.70
2023-03-15T12:03:30.022Z,10.70
2023-03-15T12:18:50.241Z,12.80
2023-03-15T12:22:25.291Z,8.90
2023-03-15T12:26:17.236Z,14.40
2023-03-15T12:29:50.334Z,10.70
2023-03-15T12:33:41.084Z,11.10
2023-03-15T12:37:13.869Z,16.60
2023-03-15T12:52:03.734Z,9.70
2023-03-15T12:55:59.591Z,12.70
2023-03-15T13:15:05.478Z,13.40
2023-03-15T13:18:53.458Z,10.30
2023-03-15T13:22:55.431Z,6.10
2023-03-15T13:26:52.875Z,9.60
2023-03-15T13:31:31.589Z,10.20
2023-03-15T13:35:16.901Z,10.80
2023-03-15T13:39:08.708Z,14.50
2023-03-15T13:43:01.525Z,11.70
2023-03-15T14:12:49.770Z,9.00
2023-03-15T14:16:21.576Z,14.40
2023-03-15T14:19:55.150Z,14.00
2023-03-15T14:23:43.616Z,8.60
2023-03-15T14:39:04.377Z,17.50
2023-03-15T14:42:40.696Z,10.80
2023-03-15T14:46:09.865Z,10.20
2023-03-15T14:49:54.199Z,12.20
2023-03-15T14:53:31.844Z,11.30
2023-03-15T14:56:22.125Z,12.00
2023-03-15T14:59:34.893Z,17.70
2023-03-15T15:03:22.075Z,11.20
2023-03-15T15:14:43.956Z,15.40
2023-03-15T15:18:08.572Z,13.10
2023-03-15T15:21:57.602Z,14.10
2023-03-15T15:25:35.182Z,12.70
2023-03-15T15:28:59.258Z,11.40
2023-03-15T15:32:47.321Z,9.40
2023-03-15T15:36:32.422Z,10.10
2023-03-15T15:40:04.849Z,12.10
2023-03-15T15:43:54.011Z,13.20
2023-03-15T15:47:13.084Z,24.10
2023-03-15T15:51:02.126Z,30.70
2023-03-15T15:53:59.476Z,35.80
2023-03-15T15:56:56.499Z,31.90
2023-03-15T15:59:47.125Z,17.20
2023-03-15T16:03:15.443Z,27.20
2023-03-15T16:10:36.027Z,80.30
2023-03-15T16:14:04.308Z,72.50
2023-03-15T16:17:37.119Z,72.10
2023-03-15T16:24:36.495Z,197.10
2023-03-15T16:28:18.344Z,247.20
2023-03-15T16:31:27.188Z,141.10
2023-03-15T16:35:17.910Z,137.20
2023-03-15T16:42:16.832Z,94.00
2023-03-15T16:45:55.435Z,46.60
2023-03-15T16:49:25.551Z,44.00
2023-03-15T17:15:32.769Z,36.90
2023-03-15T17:19:14.520Z,45.80
2023-03-15T17:22:26.768Z,62.40
2023-03-15T17:25:47.973Z,61.70
2023-03-15T17:29:36.979Z,67.00
2023-03-15T17:33:24.653Z,87.40
2023-03-15T17:36:54.005Z,113.70
2023-03-15T17:40:43.854Z,89.70
2023-03-15T17:44:15.772Z,120.50
2023-03-15T17:47:54.391Z,176.50
2023-03-15T17:51:13.597Z,189.80
2023-03-15T17:54:46.591Z,298.10
2023-03-15T17:58:28.876Z,275.20
2023-03-15T18:02:18.521Z,218.40
2023-03-15T18:06:14.981Z,172.50
2023-03-15T18:10:02.424Z,247.70
2023-03-15T18:13:09.701Z,210.80
2023-03-15T18:16:49.286Z,117.10
2023-03-15T18:28:36.024Z,101.80
2023-03-15T18:32:25.590Z,116.10
2023-03-15T18:36:08.248Z,130.50
2023-03-15T18:39:33.377Z,228.50
2023-03-15T18:43:22.291Z,143.40
2023-03-15T18:47:01.680Z,316.00
2023-03-15T19:09:34.003Z,152.00
2023-03-15T19:13:23.346Z,171.10
2023-03-15T19:17:12.367Z,218.20
2023-03-15T19:21:01.876Z,193.60
2023-03-15T19:24:51.637Z,150.90
2023-03-15T19:28:29.697Z,103.20
2023-03-15T19:32:13.790Z,86.20
2023-03-15T19:35:54.155Z,116.40
2023-03-15T19:57:37.955Z,47.50
2023-03-15T20:01:09.352Z,43.80
2023-03-15T20:04:57.316Z,43.20
2023-03-15T20:08:46.983Z,52.40
2023-03-15T20:12:37.158Z,51.80
2023-03-15T20:15:46.282Z,47.40
2023-03-15T20:19:30.318Z,60.00
2023-03-15T20:22:27.533Z,70.70
2023-03-15T20:25:06.923Z,74.20
2023-03-15T20:28:10.691Z,89.60
2023-03-15T20:31:05.647Z,103.80
2023-03-15T20:34:23.208Z,90.10
2023-03-15T20:36:53.813Z,89.30
2023-03-15T20:40:21.677Z,78.70
2023-03-15T20:44:11.041Z,76.00
2023-03-15T20:48:00.275Z,73.10
2023-03-15T20:51:49.134Z,72.60
2023-03-15T20:55:38.423Z,82.60
2023-03-15T20:59:26.147Z,84.80
2023-03-15T21:03:14.039Z,98.30
2023-03-15T21:06:42.654Z,91.60
2023-03-15T21:10:01.878Z,86.00
2023-03-15T21:13:11.214Z,97.20
2023-03-15T21:16:26.430Z,109.10
2023-03-15T21:20:15.794Z,101.60
2023-03-15T21:23:45.662Z,118.10
2023-03-15T21:27:05.515Z,123.60
2023-03-15T21:30:37.561Z,111.30
2023-03-15T21:33:53.098Z,102.50
2023-03-15T21:37:21.128Z,96.80
2023-03-15T21:41:13.548Z,89.60
2023-03-15T21:45:02.578Z,90.40
2023-03-15T21:48:51.802Z,95.20
2023-03-15T21:55:27.637Z,103.80
2023-03-15T22:10:38.141Z,85.20
2023-03-15T22:14:27.355Z,83.80
2023-03-15T22:18:15.072Z,77.00
2023-03-15T22:22:04.497Z,79.90
2023-03-15T22:25:54.846Z,80.70
2023-03-15T22:38:04.496Z,70.10
2023-03-15T22:41:31.972Z,68.70
2023-03-15T22:45:19.608Z,68.90
2023-03-15T22:49:07.188Z,58.90
2023-03-15T22:52:47.572Z,55.50
2023-03-15T22:56:17.706Z,50.70
2023-03-15T23:00:07.006Z,50.80
2023-03-15T23:03:56.012Z,50.70
2023-03-15T23:07:38.146Z,42.50
2023-03-15T23:11:20.983Z,40.60
2023-03-15T23:23:14.336Z,42.30
2023-03-15T23:27:03.686Z,39.10
2023-03-15T23:30:35.733Z,44.10
2023-03-15T23:42:27.852Z,41.60
2023-03-15T23:46:10.485Z,40.70
2023-03-15T23:49:59.677Z,37.20
2023-03-15T23:53:30.126Z,36.80
